• Join FlightAware (Why Join?)
  • Login
  • US Flag 
Trick or treat! (Boo!!) 
11:20PM EDT


 

Airport Tracker/Info


-or-


 

Live Flight TrackerFlight Track Log ✈ KAP444 ✈ 06-May-2013 ✈ KOGS - KALB

Flight Track Log - Related Links

Times and Time Zones

All times are in EDT time to prevent confusion due to time zone crossing. See the KAP444 flight status page for this flight to view local times or setup timezone preferences in your user account.

Time Position Orientation Groundspeed Altitude Reporting Facility
EDT Latitude Longitude Course Direction KTS MPH feet Rate Location/Type
07:06AM 44.5722 -75.2756 148° Southeast 141 162 4,600  Level Boston Center
07:07AM 44.5436 -75.2567 155° Southeast 126 145 5,300 660 Climbing Boston Center
07:08AM 44.5172 -75.2322 147° Southeast 114 131 6,000 660 Climbing Boston Center
07:09AM 44.4864 -75.2103 153° Southeast 114 131 6,700 600 Climbing Boston Center
07:10AM 44.4600 -75.1858 147° Southeast 114 131 7,300 420 Climbing Boston Center
07:11AM 44.4750 -75.2812 148° Southeast  Level Estimated
07:11AM 44.4292 -75.1642 153° Southeast 114 131 7,600  Level Boston Center
07:12AM 44.3944 -75.1306 145° Southeast 129 148 7,500 -60 Descending Boston Center
07:13AM 44.3597 -75.0969 145° Southeast 144 166 7,500  Level Boston Center
07:14AM 44.3253 -75.0636 145° Southeast 144 166 7,500  Level Boston Center
07:15AM 44.2883 -75.0386 154° Southeast 144 166 7,500  Level Boston Center
07:16AM 44.2514 -75.0053 147° Southeast 149 171 7,500  Level Boston Center
07:17AM 44.2125 -74.9744 150° Southeast 149 171 7,500  Level Boston Center
07:18AM 44.1778 -74.9442 148° Southeast 154 177 7,500  Level Boston Center
07:19AM 44.1389 -74.9164 153° Southeast 154 177 7,500  Level Boston Center
07:20AM 44.1019 -74.8889 152° Southeast 154 177 7,500  Level Boston Center
07:21AM 44.0650 -74.8586 150° Southeast 154 177 7,500  Level Boston Center
07:22AM 44.0364 -74.8342 148° Southeast 154 177 7,500  Level Boston Center
07:23AM 43.9933 -74.8008 151° Southeast 154 177 7,500  Level Boston Center
07:24AM 43.9564 -74.7706 149° Southeast 154 177 7,500  Level Boston Center
07:25AM 43.9175 -74.7400 150° Southeast 154 177 7,500  Level Boston Center
07:26AM 43.8825 -74.7100 148° Southeast 154 177 7,600  Climbing Boston Center
07:27AM 43.8456 -74.6828 152° Southeast 154 177 7,600  Level Boston Center
07:28AM 43.8086 -74.6497 147° Southeast 154 177 7,600  Level Boston Center
07:29AM 43.7717 -74.6194 149° Southeast 154 177 7,600  Level Boston Center
07:30AM 43.7347 -74.5894 150° Southeast 154 177 7,600  Level Boston Center
07:31AM 43.6978 -74.5594 150° Southeast 154 177 7,600  Level Boston Center
07:32AM 43.6608 -74.5294 150° Southeast 154 177 7,600  Level Boston Center
07:33AM 43.6239 -74.5022 152° Southeast 154 177 7,600  Level Boston Center
07:34AM 43.5889 -74.4725 148° Southeast 154 177 7,600  Level Boston Center
07:35AM 43.5519 -74.4425 150° Southeast 154 177 7,600  Level Boston Center
07:36AM 43.5150 -74.4128 150° Southeast 154 177 7,600  Level Boston Center
07:37AM 43.4781 -74.3828 149° Southeast 154 177 7,600  Level Boston Center
07:38AM 43.4411 -74.3531 150° Southeast 154 177 7,600  Level Boston Center
07:39AM 43.4164 -74.3322 149° Southeast 155 178 7,600  Level Boston Center
07:39AM 43.4039 -74.3233 153° Southeast 154 177 7,600  Level Boston Center
07:39AM 43.3917 -74.3117 145° Southeast 156 180 7,600  Level Boston Center
07:40AM 43.3733 -74.2881 137° Southeast 154 177 7,600  Level Boston Center
07:40AM 43.3608 -74.2792 153° Southeast 154 177 7,600  Level Boston Center
07:41AM 43.3281 -74.2467 144° Southeast 154 177 7,600  Level Boston Center
07:42AM 43.3014 -74.2231 147° Southeast 154 177 7,600  Level Boston Center
07:43AM 43.2622 -74.1906 149° Southeast 159 183 7,600 -120 Level Boston Center
07:44AM 43.2272 -74.1611 148° Southeast 159 183 7,400 -360 Descending Boston Center
07:45AM 43.1861 -74.1258 148° Southeast 164 189 6,900 -480 Descending Boston Center
07:45AM 43.1758 -74.1197 157° South 168 193 6,800 -420 Descending Boston Center
07:46AM 43.1492 -74.0936 144° Southeast 169 194 6,500 -420 Descending Boston Center
07:46AM 43.1367 -74.0847 153° Southeast 170 196 6,400 -540 Descending Boston Center
07:47AM 43.1058 -74.0525 143° Southeast 169 194 6,000 -540 Descending Boston Center
07:47AM 43.0975 -74.0494 165° South 169 194 5,900 -420 Descending Boston Center
07:48AM 43.0708 -74.0231 144° Southeast 164 189 5,600 -420 Descending Boston Center
07:48AM 43.0564 -74.0114 149° Southeast 171 197 5,500 -540 Descending Boston Center
07:49AM 43.0278 -73.9853 146° Southeast 164 189 5,100 -540 Descending Boston Center
07:49AM 43.0131 -73.9764 156° South 170 196 5,000 -480 Descending Boston Center
07:50AM 42.9761 -73.9442 147° Southeast 172 198 4,500 -480 Descending Boston Center
07:51AM 42.9472 -73.9122 141° Southeast 170 196 4,200 -540 Descending Boston Center
07:51AM 42.9350 -73.9033 152° Southeast 174 200 4,000 -600 Descending Boston Center
07:52AM 42.9125 -73.8744 137° Southeast 170 196 3,600 -600 Descending Boston Center
07:52AM 42.9000 -73.8572 135° Southeast 175 201 3,400 -540 Descending Boston Center
07:53AM 42.8756 -73.8283 139° Southeast 175 201 3,100 -600 Descending Boston Center
07:53AM 42.8608 -73.8222 163° South 168 193 2,800 -1,020 Descending Boston Center
07:54AM 42.8214 -73.8131 170° South 141 162 1,800 -900 Descending Boston Center
07:55AM 42.7861 -73.8094 176° South 109 125 1,000 -840 Descending Boston Center
07:57AM 42.7491 -73.8020 173° South  Level Estimated
08:04AM 42.7491 -73.8020 160° South  Level Estimated
08:05AM 42.7491 -73.8020 160° South  Level Estimated
08:06AM 42.7491 -73.8020 160° South  Level Estimated
08:07AM 42.7491 -73.8020 160° South  Level Estimated
08:08AM 42.7491 -73.8020 160° South  Level Estimated
08:09AM 42.7491 -73.8020 160° South  Level Estimated
08:10AM 42.7491 -73.8020 160° South  Level Estimated
08:11AM 42.7491 -73.8020 160° South  Level Estimated
08:12AM 42.7491 -73.8020 160° South  Level Estimated
08:13AM 42.7491 -73.8020 160° South  Level Estimated
08:14AM 42.7491 -73.8020 160° South  Level Estimated
08:15AM 42.7491 -73.8020 160° South  Level Estimated
08:16AM 42.7491 -73.8020 160° South  Level Estimated
08:17AM 42.7491 -73.8020 160° South  Level Estimated